createdAt,value
2018-08-08T00:01:26.294Z,1000.44
2018-08-08T00:02:26.364Z,1000.46
2018-08-08T00:04:19.390Z,1000.46
2018-08-08T00:05:19.456Z,1000.44
2018-08-08T00:07:12.458Z,1000.39
2018-08-08T00:08:12.528Z,1000.39
2018-08-08T00:10:05.537Z,1000.40
2018-08-08T00:11:05.595Z,1000.43
2018-08-08T00:12:58.605Z,1000.44
2018-08-08T00:13:58.666Z,1000.42
2018-08-08T00:15:51.668Z,1000.42
2018-08-08T00:16:51.737Z,1000.44
2018-08-08T00:18:44.741Z,1000.37
2018-08-08T00:19:44.810Z,1000.42
2018-08-08T00:21:38.313Z,1000.45
2018-08-08T00:22:38.380Z,1000.46
2018-08-08T00:24:31.387Z,1000.45
2018-08-08T00:25:31.450Z,1000.44
2018-08-08T00:27:24.456Z,1000.40
2018-08-08T00:28:24.519Z,1000.40
2018-08-08T00:30:17.525Z,1000.44
2018-08-08T00:31:17.590Z,1000.46
2018-08-08T00:33:10.594Z,1000.38
2018-08-08T00:34:10.655Z,1000.36
2018-08-08T00:36:03.654Z,1000.32
2018-08-08T00:37:03.725Z,1000.28
2018-08-08T00:38:56.732Z,1000.20
2018-08-08T00:39:56.794Z,1000.19
2018-08-08T00:41:49.798Z,1000.19
2018-08-08T00:42:49.870Z,1000.19
2018-08-08T00:44:42.875Z,1000.19
2018-08-08T00:45:42.939Z,1000.18
2018-08-08T00:47:35.937Z,1000.16
2018-08-08T00:48:36.007Z,1000.19
2018-08-08T00:50:29.019Z,1000.15
2018-08-08T00:51:29.081Z,1000.13
2018-08-08T00:53:22.090Z,1000.09
2018-08-08T00:54:22.152Z,1000.09
2018-08-08T00:56:15.152Z,1000.07
2018-08-08T00:57:15.221Z,1000.07
2018-08-08T00:59:08.227Z,1000.04
2018-08-08T01:00:08.288Z,1000.06
2018-08-08T01:02:01.287Z,1000.00
2018-08-08T01:03:01.356Z,999.97
2018-08-08T01:04:54.365Z,999.91
2018-08-08T01:05:54.430Z,999.89
2018-08-08T01:07:47.427Z,999.85
2018-08-08T01:08:47.527Z,999.87
2018-08-08T01:10:40.501Z,999.95
2018-08-08T01:11:40.562Z,1000.01
2018-08-08T01:13:33.570Z,1000.02
2018-08-08T01:14:33.637Z,1000.04
2018-08-08T01:16:26.630Z,1000.02
2018-08-08T01:17:26.701Z,1000.04
2018-08-08T01:19:19.708Z,1000.09
2018-08-08T01:20:19.766Z,1000.12
2018-08-08T01:22:13.276Z,1000.31
2018-08-08T01:23:13.339Z,1000.50
2018-08-08T01:25:06.348Z,1000.70
2018-08-08T01:26:06.409Z,1000.73
2018-08-08T01:27:59.408Z,1000.70
2018-08-08T01:28:59.474Z,1000.66
2018-08-08T01:30:52.481Z,1000.75
2018-08-08T01:31:52.541Z,1000.72
2018-08-08T01:33:45.556Z,1000.66
2018-08-08T01:34:45.637Z,1000.64
2018-08-08T01:36:38.615Z,1000.81
2018-08-08T01:37:38.692Z,1000.86
2018-08-08T01:39:31.690Z,1000.77
2018-08-08T01:40:31.753Z,1000.77
2018-08-08T01:42:24.756Z,1000.77
2018-08-08T01:43:24.825Z,1000.80
2018-08-08T01:45:17.830Z,1000.80
2018-08-08T01:46:17.892Z,1000.79
2018-08-08T01:48:10.895Z,1000.77
2018-08-08T01:49:10.959Z,1000.73
2018-08-08T01:51:03.967Z,1000.72
2018-08-08T01:52:04.026Z,1000.68
2018-08-08T01:53:57.031Z,1000.71
2018-08-08T01:54:57.092Z,1000.73
2018-08-08T01:56:50.091Z,1000.74
2018-08-08T01:57:50.157Z,1000.71
2018-08-08T01:59:43.164Z,1000.68
2018-08-08T02:00:43.224Z,1000.63
2018-08-08T02:02:36.225Z,1000.59
2018-08-08T02:03:36.294Z,1000.59
2018-08-08T02:05:29.300Z,1000.53
2018-08-08T02:06:29.361Z,1000.52
2018-08-08T02:08:22.358Z,1000.51
2018-08-08T02:09:22.433Z,1000.45
2018-08-08T02:11:15.435Z,1000.45
2018-08-08T02:12:15.495Z,1000.40
2018-08-08T02:14:08.500Z,1000.38
2018-08-08T02:15:08.566Z,1000.35
2018-08-08T02:17:01.566Z,1000.39
2018-08-08T02:18:01.633Z,1000.38
2018-08-08T02:19:54.637Z,1000.45
2018-08-08T02:20:54.699Z,1000.49
2018-08-08T02:22:47.702Z,1000.54
2018-08-08T02:23:47.764Z,1000.57
2018-08-08T02:25:40.768Z,1000.74
2018-08-08T02:26:40.831Z,1000.98
2018-08-08T02:28:33.832Z,1001.23
2018-08-08T02:29:33.898Z,1001.30
2018-08-08T02:31:26.904Z,1001.38
2018-08-08T02:32:26.964Z,1001.38
2018-08-08T02:34:19.970Z,1001.43
2018-08-08T02:35:20.030Z,1001.41
2018-08-08T02:37:13.040Z,1001.32
2018-08-08T02:38:13.103Z,1001.29
2018-08-08T02:40:06.115Z,1001.14
2018-08-08T02:41:06.175Z,1001.04
2018-08-08T02:42:59.173Z,1000.96
2018-08-08T02:43:59.241Z,1000.90
2018-08-08T02:45:52.246Z,1000.87
2018-08-08T02:46:52.307Z,1000.85
2018-08-08T02:48:45.311Z,1000.75
2018-08-08T02:49:45.375Z,1000.72
2018-08-08T02:51:38.381Z,1000.76
2018-08-08T02:52:38.441Z,1000.82
2018-08-08T02:54:31.448Z,1000.82
2018-08-08T02:55:31.519Z,1000.75
2018-08-08T02:57:24.508Z,1000.64
2018-08-08T02:58:24.578Z,1000.60
2018-08-08T03:00:17.584Z,1000.61
2018-08-08T03:01:17.642Z,1000.65
2018-08-08T03:03:10.640Z,1000.74
2018-08-08T03:04:10.709Z,1000.84
2018-08-08T03:06:03.712Z,1000.92
2018-08-08T03:07:03.773Z,1000.96
2018-08-08T03:08:56.772Z,1001.05
2018-08-08T03:09:56.840Z,1001.07
2018-08-08T03:11:49.845Z,1001.04
2018-08-08T03:12:49.906Z,1001.07
2018-08-08T03:14:42.917Z,1001.14
2018-08-08T03:15:42.978Z,1001.15
2018-08-08T03:17:35.977Z,1001.21
2018-08-08T03:18:36.046Z,1001.24
2018-08-08T03:20:29.050Z,1001.27
2018-08-08T03:21:29.110Z,1001.29
2018-08-08T03:23:22.107Z,1001.27
2018-08-08T03:24:22.176Z,1001.27
2018-08-08T03:26:15.223Z,1001.23
2018-08-08T03:27:15.245Z,1001.22
2018-08-08T03:29:08.246Z,1001.24
2018-08-08T03:30:08.314Z,1001.27
2018-08-08T03:32:01.318Z,1001.30
2018-08-08T03:33:01.380Z,1001.36
2018-08-08T03:34:54.393Z,1001.47
2018-08-08T03:35:54.454Z,1001.52
2018-08-08T03:37:47.460Z,1001.64
2018-08-08T03:38:47.530Z,1001.72
2018-08-08T03:40:40.533Z,1001.80
2018-08-08T03:41:40.597Z,1001.85
2018-08-08T03:43:33.593Z,1001.91
2018-08-08T03:44:33.662Z,1001.98
2018-08-08T03:46:26.661Z,1001.98
2018-08-08T03:47:26.723Z,1002.00
2018-08-08T03:49:19.720Z,1001.85
2018-08-08T03:50:19.788Z,1001.77
2018-08-08T03:52:12.792Z,1001.73
2018-08-08T03:53:12.900Z,1001.73
2018-08-08T03:55:05.901Z,1001.76
2018-08-08T03:56:05.921Z,1001.79
2018-08-08T03:57:58.922Z,1001.74
2018-08-08T03:58:59.036Z,1001.61
2018-08-08T04:00:52.007Z,1001.48
2018-08-08T04:01:52.062Z,1001.52
2018-08-08T04:03:45.058Z,1001.60
2018-08-08T04:04:45.127Z,1001.67
2018-08-08T04:06:38.131Z,1001.82
2018-08-08T04:07:38.195Z,1001.84
2018-08-08T04:09:31.192Z,1002.04
2018-08-08T04:10:31.259Z,1002.19
2018-08-08T04:12:24.263Z,1002.35
2018-08-08T04:13:24.322Z,1002.43
2018-08-08T04:15:17.329Z,1002.54
2018-08-08T04:16:17.388Z,1002.64
2018-08-08T04:18:10.390Z,1002.77
2018-08-08T04:19:10.452Z,1002.89
2018-08-08T04:21:03.459Z,1003.03
2018-08-08T04:22:03.519Z,1003.13
2018-08-08T04:23:56.516Z,1003.29
2018-08-08T04:24:56.583Z,1003.33
2018-08-08T04:26:49.588Z,1003.44
2018-08-08T04:27:49.647Z,1003.52
2018-08-08T04:29:42.668Z,1003.57
2018-08-08T04:30:42.715Z,1003.62
2018-08-08T04:32:35.722Z,1003.71
2018-08-08T04:33:35.781Z,1003.76
2018-08-08T04:35:28.793Z,1003.64
2018-08-08T04:36:28.855Z,1003.51
2018-08-08T04:38:21.848Z,1003.44
2018-08-08T04:39:21.916Z,1003.39
2018-08-08T04:41:14.913Z,1003.32
2018-08-08T04:42:14.973Z,1003.33
2018-08-08T04:44:07.973Z,1003.25
2018-08-08T04:45:08.041Z,1003.21
2018-08-08T04:47:01.044Z,1003.19
2018-08-08T04:48:01.102Z,1003.18
2018-08-08T04:49:54.100Z,1003.17
2018-08-08T04:50:54.176Z,1003.23
2018-08-08T04:52:47.170Z,1003.46
2018-08-08T04:53:47.231Z,1003.44
2018-08-08T04:55:40.237Z,1003.54
2018-08-08T04:56:40.298Z,1003.67
2018-08-08T04:58:33.337Z,1003.80
2018-08-08T04:59:33.360Z,1003.84
2018-08-08T05:01:26.362Z,1003.70
2018-08-08T05:02:26.422Z,1003.64
2018-08-08T05:04:19.420Z,1003.64
2018-08-08T05:05:19.487Z,1003.64
2018-08-08T05:07:12.490Z,1003.66
2018-08-08T05:08:12.551Z,1003.61
2018-08-08T05:10:05.552Z,1003.59
2018-08-08T05:11:05.619Z,1003.65
2018-08-08T05:12:58.623Z,1003.79
2018-08-08T05:13:58.683Z,1003.89
2018-08-08T05:15:51.689Z,1004.13
2018-08-08T05:16:51.749Z,1004.20
2018-08-08T05:18:44.748Z,1004.33
2018-08-08T05:19:44.817Z,1004.34
2018-08-08T05:21:38.335Z,1004.32
2018-08-08T05:22:38.390Z,1004.29
2018-08-08T05:24:31.397Z,1004.30
2018-08-08T05:25:31.463Z,1004.30
2018-08-08T05:27:24.468Z,1004.32
2018-08-08T05:28:24.526Z,1004.30
2018-08-08T05:30:17.578Z,1004.34
2018-08-08T05:31:17.593Z,1004.38
2018-08-08T05:33:10.597Z,1004.38
2018-08-08T05:34:10.655Z,1004.36
2018-08-08T05:36:03.668Z,1004.35
2018-08-08T05:37:03.723Z,1004.32
2018-08-08T05:38:56.730Z,1004.37
2018-08-08T05:39:56.797Z,1004.36
2018-08-08T05:41:49.805Z,1004.36
2018-08-08T05:42:49.878Z,1004.33
2018-08-08T05:44:42.870Z,1004.32
2018-08-08T05:45:42.939Z,1004.31
2018-08-08T05:47:35.939Z,1004.23
2018-08-08T05:48:36.001Z,1004.18
2018-08-08T05:50:29.004Z,1004.23
2018-08-08T05:51:29.070Z,1004.23
2018-08-08T05:53:22.076Z,1004.19
2018-08-08T05:54:22.141Z,1004.14
2018-08-08T05:56:15.166Z,1004.13
2018-08-08T05:57:15.279Z,1004.11
2018-08-08T05:59:19.875Z,1004.01
2018-08-08T06:00:20.198Z,1004.03
2018-08-08T06:02:13.279Z,1003.97
2018-08-08T06:03:13.056Z,1003.96
2018-08-08T06:05:05.980Z,1003.90
2018-08-08T06:06:06.051Z,1003.89
2018-08-08T06:07:59.048Z,1003.94
2018-08-08T06:08:59.106Z,1003.94
2018-08-08T06:10:52.106Z,1004.01
2018-08-08T06:11:52.170Z,1003.98
2018-08-08T06:13:45.175Z,1004.07
2018-08-08T06:14:45.231Z,1004.16
2018-08-08T06:16:38.244Z,1004.24
2018-08-08T06:17:38.298Z,1004.28
2018-08-08T06:19:31.292Z,1004.31
2018-08-08T06:20:31.357Z,1004.28
2018-08-08T06:22:24.872Z,1004.11
2018-08-08T06:23:24.929Z,1004.10
2018-08-08T06:25:18.464Z,1004.00
2018-08-08T06:26:18.497Z,1004.02
2018-08-08T06:28:12.017Z,1004.01
2018-08-08T06:29:12.068Z,1004.03
2018-08-08T06:31:05.676Z,1004.03
2018-08-08T06:32:05.650Z,1003.97
2018-08-08T06:33:59.264Z,1004.05
2018-08-08T06:34:59.206Z,1004.07
2018-08-08T06:36:52.228Z,1003.95
2018-08-08T06:37:52.277Z,1004.01
2018-08-08T06:39:45.274Z,1003.89
2018-08-08T06:40:45.364Z,1003.84
2018-08-08T06:42:38.340Z,1003.82
2018-08-08T06:43:38.446Z,1003.87
2018-08-08T06:45:31.423Z,1004.09
2018-08-08T06:46:31.473Z,1004.08
2018-08-08T06:48:24.492Z,1004.04
2018-08-08T06:49:24.551Z,1004.01
2018-08-08T06:51:17.589Z,1003.87
2018-08-08T06:52:17.625Z,1003.93
2018-08-08T06:54:10.649Z,1003.90
2018-08-08T06:55:10.689Z,1003.95
2018-08-08T06:57:03.705Z,1004.00
2018-08-08T06:58:03.771Z,1004.02
2018-08-08T06:59:56.835Z,1004.03
2018-08-08T07:00:56.856Z,1004.00
2018-08-08T07:02:49.873Z,1003.88
2018-08-08T07:03:49.924Z,1003.91
2018-08-08T07:05:42.928Z,1003.88
2018-08-08T07:06:42.991Z,1003.82
2018-08-08T07:08:36.188Z,1003.90
2018-08-08T07:09:36.076Z,1003.83
2018-08-08T07:11:29.091Z,1003.90
2018-08-08T07:12:29.125Z,1003.92
2018-08-08T07:14:22.217Z,1003.94
2018-08-08T07:15:22.272Z,1003.94
2018-08-08T07:17:15.191Z,1004.03
2018-08-08T07:18:15.271Z,1004.02
2018-08-08T07:20:08.285Z,1004.03
2018-08-08T07:21:08.324Z,1003.99
2018-08-08T07:23:01.335Z,1004.00
2018-08-08T07:24:01.392Z,1003.98
2018-08-08T07:25:54.402Z,1003.95
2018-08-08T07:26:54.465Z,1003.98
2018-08-08T07:28:47.569Z,1003.92
2018-08-08T07:29:47.534Z,1003.96
2018-08-08T07:31:40.536Z,1003.93
2018-08-08T07:32:40.608Z,1003.89
2018-08-08T07:34:33.881Z,1003.84
2018-08-08T07:35:33.680Z,1003.77
2018-08-08T07:37:27.206Z,1003.87
2018-08-08T07:38:27.295Z,1003.82
2018-08-08T07:40:20.500Z,1003.84
2018-08-08T07:41:20.316Z,1003.80
2018-08-08T07:43:13.317Z,1003.78
2018-08-08T07:44:13.378Z,1003.77
2018-08-08T07:46:06.439Z,1003.78
2018-08-08T07:47:06.444Z,1003.82
2018-08-08T07:48:59.448Z,1003.77
2018-08-08T07:49:59.508Z,1003.80
2018-08-08T07:51:52.505Z,1003.85
2018-08-08T07:52:52.571Z,1003.85
2018-08-08T07:54:45.574Z,1003.87
2018-08-08T07:55:45.635Z,1003.89
2018-08-08T07:57:38.645Z,1003.94
2018-08-08T07:58:38.713Z,1003.98
2018-08-08T08:00:31.703Z,1004.01
2018-08-08T08:01:31.768Z,1004.02
2018-08-08T08:03:24.777Z,1004.07
2018-08-08T08:04:24.844Z,1004.02
2018-08-08T08:06:17.845Z,1003.97
2018-08-08T08:07:17.912Z,1004.05
2018-08-08T08:09:10.925Z,1004.00
2018-08-08T08:10:10.985Z,1004.15
2018-08-08T08:12:03.983Z,1004.17
2018-08-08T08:13:04.053Z,1004.16
2018-08-08T08:14:57.070Z,1004.06
2018-08-08T08:15:57.138Z,1004.05
2018-08-08T08:17:50.136Z,1004.23
2018-08-08T08:18:50.203Z,1004.16
2018-08-08T08:20:43.240Z,1004.06
2018-08-08T08:21:43.475Z,1004.19
2018-08-08T08:23:36.336Z,1004.37
2018-08-08T08:24:36.384Z,1004.36
2018-08-08T08:26:29.391Z,1004.44
2018-08-08T08:27:29.457Z,1004.43
2018-08-08T08:29:22.514Z,1004.20
2018-08-08T08:30:22.546Z,1004.31
2018-08-08T08:32:15.557Z,1004.42
2018-08-08T08:33:15.628Z,1004.30
2018-08-08T08:35:08.645Z,1004.18
2018-08-08T08:36:08.711Z,1004.21
2018-08-08T08:38:02.233Z,1004.30
2018-08-08T08:39:02.300Z,1004.27
2018-08-08T08:40:55.310Z,1004.26
2018-08-08T08:41:55.381Z,1004.22
2018-08-08T08:43:48.475Z,1004.27
2018-08-08T08:44:48.456Z,1004.30
2018-08-08T08:46:41.478Z,1004.30
2018-08-08T08:47:41.537Z,1004.27
2018-08-08T08:49:34.556Z,1004.34
2018-08-08T08:50:34.620Z,1004.43
2018-08-08T08:52:27.626Z,1004.42
2018-08-08T08:53:27.700Z,1004.48
2018-08-08T08:55:20.712Z,1004.53
2018-08-08T08:56:20.788Z,1004.52
2018-08-08T08:58:13.789Z,1004.60
2018-08-08T08:59:13.855Z,1004.58
2018-08-08T09:01:06.860Z,1004.60
2018-08-08T09:02:06.930Z,1004.62
2018-08-08T09:03:59.954Z,1004.65
2018-08-08T09:05:00.023Z,1004.70
2018-08-08T09:06:53.019Z,1004.69
2018-08-08T09:07:53.098Z,1004.64
2018-08-08T09:09:46.105Z,1004.75
2018-08-08T09:10:46.164Z,1004.75
2018-08-08T09:12:39.168Z,1004.78
2018-08-08T09:13:39.238Z,1004.75
2018-08-08T09:15:32.250Z,1004.77
2018-08-08T09:16:32.333Z,1004.80
2018-08-08T09:18:25.327Z,1004.75
2018-08-08T09:19:25.407Z,1004.76
2018-08-08T09:21:18.389Z,1004.69
2018-08-08T09:22:18.463Z,1004.72
2018-08-08T09:24:11.532Z,1004.68
2018-08-08T09:25:11.551Z,1004.68
2018-08-08T09:27:04.542Z,1004.68
2018-08-08T09:28:04.634Z,1004.73
2018-08-08T09:29:57.624Z,1004.76
2018-08-08T09:30:57.686Z,1004.76
2018-08-08T09:32:50.702Z,1004.71
2018-08-08T09:33:50.766Z,1004.78
2018-08-08T09:35:43.807Z,1004.80
2018-08-08T09:36:43.835Z,1004.80
2018-08-08T09:38:36.854Z,1004.82
2018-08-08T09:39:36.917Z,1004.89
2018-08-08T09:41:29.916Z,1004.90
2018-08-08T09:42:29.987Z,1004.97
2018-08-08T09:44:23.022Z,1004.99
2018-08-08T09:45:23.086Z,1004.98
2018-08-08T09:47:16.060Z,1005.00
2018-08-08T09:48:16.131Z,1005.07
2018-08-08T09:50:09.163Z,1005.05
2018-08-08T09:51:09.201Z,1005.04
2018-08-08T09:53:02.217Z,1005.14
2018-08-08T09:54:02.283Z,1005.07
2018-08-08T09:55:55.304Z,1005.09
2018-08-08T09:56:55.460Z,1005.14
2018-08-08T09:58:48.373Z,1005.18
2018-08-08T09:59:48.441Z,1005.15
2018-08-08T10:01:41.447Z,1005.23
2018-08-08T10:02:41.510Z,1005.27
2018-08-08T10:04:34.522Z,1005.26
2018-08-08T10:05:34.592Z,1005.28
2018-08-08T10:07:27.642Z,1005.29
2018-08-08T10:08:27.661Z,1005.26
2018-08-08T10:10:20.670Z,1005.26
2018-08-08T10:11:20.734Z,1005.26
2018-08-08T10:13:13.737Z,1005.31
2018-08-08T10:14:13.804Z,1005.37
2018-08-08T10:16:06.812Z,1005.43
2018-08-08T10:17:06.928Z,1005.41
2018-08-08T10:18:59.943Z,1005.42
2018-08-08T10:19:59.949Z,1005.44
2018-08-08T10:21:53.107Z,1005.46
2018-08-08T10:22:53.120Z,1005.42
2018-08-08T10:24:46.036Z,1005.42
2018-08-08T10:25:46.102Z,1005.45
2018-08-08T10:27:39.116Z,1005.49
2018-08-08T10:28:39.182Z,1005.51
2018-08-08T10:30:32.213Z,1005.53
2018-08-08T10:31:32.283Z,1005.59
2018-08-08T10:33:25.274Z,1005.58
2018-08-08T10:34:25.342Z,1005.58
2018-08-08T10:36:18.344Z,1005.63
2018-08-08T10:37:18.462Z,1005.67
2018-08-08T10:39:11.415Z,1005.62
2018-08-08T10:40:11.489Z,1005.65
2018-08-08T10:42:04.571Z,1005.67
2018-08-08T10:43:04.551Z,1005.64
2018-08-08T10:44:57.722Z,1005.64
2018-08-08T10:45:57.635Z,1005.70
2018-08-08T10:47:50.647Z,1005.68
2018-08-08T10:48:50.714Z,1005.71
2018-08-08T10:50:43.718Z,1005.72
2018-08-08T10:51:43.807Z,1005.77
2018-08-08T10:53:36.835Z,1005.83
2018-08-08T10:54:36.854Z,1005.84
2018-08-08T10:56:29.859Z,1005.81
2018-08-08T10:57:29.927Z,1005.79
2018-08-08T10:59:22.936Z,1005.85
2018-08-08T11:00:23.024Z,1005.88
2018-08-08T11:02:16.006Z,1005.94
2018-08-08T11:03:16.170Z,1005.99
2018-08-08T11:05:09.078Z,1005.97
2018-08-08T11:06:09.145Z,1006.00
2018-08-08T11:08:02.163Z,1006.00
2018-08-08T11:09:02.227Z,1006.02
2018-08-08T11:10:55.216Z,1006.10
2018-08-08T11:11:55.279Z,1006.09
2018-08-08T11:13:48.286Z,1006.08
2018-08-08T11:14:48.348Z,1006.03
2018-08-08T11:16:41.401Z,1006.11
2018-08-08T11:17:41.469Z,1006.05
2018-08-08T11:19:34.453Z,1006.06
2018-08-08T11:20:34.497Z,1006.10
2018-08-08T11:22:27.551Z,1006.10
2018-08-08T11:23:27.567Z,1006.10
2018-08-08T11:25:20.586Z,1006.11
2018-08-08T11:26:20.640Z,1006.18
2018-08-08T11:28:14.193Z,1006.17
2018-08-08T11:29:13.719Z,1006.27
2018-08-08T11:31:06.731Z,1006.21
2018-08-08T11:32:06.784Z,1006.26
2018-08-08T11:33:59.794Z,1006.27
2018-08-08T11:34:59.855Z,1006.27
2018-08-08T11:36:52.931Z,1006.32
2018-08-08T11:37:52.970Z,1006.30
2018-08-08T11:39:45.932Z,1006.33
2018-08-08T11:40:45.997Z,1006.33
2018-08-08T11:42:39.005Z,1006.39
2018-08-08T11:43:39.077Z,1006.31
2018-08-08T11:45:32.083Z,1006.20
2018-08-08T11:46:32.164Z,1006.24
2018-08-08T11:48:25.154Z,1006.27
2018-08-08T11:49:25.233Z,1006.35
2018-08-08T11:51:18.225Z,1006.40
2018-08-08T11:52:18.292Z,1006.39
2018-08-08T11:54:11.311Z,1006.41
2018-08-08T11:55:11.380Z,1006.37
2018-08-08T11:57:05.399Z,1006.37
2018-08-08T11:58:05.478Z,1006.36
2018-08-08T11:59:58.520Z,1006.35
2018-08-08T12:00:58.563Z,1006.36
2018-08-08T12:02:51.581Z,1006.26
2018-08-08T12:03:51.650Z,1006.35
2018-08-08T12:05:44.656Z,1006.36
2018-08-08T12:06:44.719Z,1006.33
2018-08-08T12:08:38.779Z,1006.36
2018-08-08T12:09:38.831Z,1006.41
2018-08-08T12:11:31.846Z,1006.46
2018-08-08T12:12:31.911Z,1006.49
2018-08-08T12:14:25.006Z,1006.52
2018-08-08T12:15:25.043Z,1006.53
2018-08-08T12:17:18.031Z,1006.61
2018-08-08T12:18:18.100Z,1006.61
2018-08-08T12:20:11.139Z,1006.60
2018-08-08T12:21:11.235Z,1006.53
2018-08-08T12:23:04.200Z,1006.71
2018-08-08T12:24:04.362Z,1006.70
2018-08-08T12:25:57.752Z,1006.73
2018-08-08T12:26:57.436Z,1006.75
2018-08-08T12:28:50.384Z,1006.78
2018-08-08T12:29:50.418Z,1006.76
2018-08-08T12:31:43.437Z,1006.74
2018-08-08T12:32:43.510Z,1006.76
2018-08-08T12:34:36.505Z,1006.85
2018-08-08T12:35:36.581Z,1006.84
2018-08-08T12:37:32.119Z,1006.83
2018-08-08T12:38:32.158Z,1006.87
2018-08-08T12:40:25.197Z,1006.91
2018-08-08T12:41:25.241Z,1006.87
2018-08-08T12:43:18.241Z,1006.89
2018-08-08T12:44:18.309Z,1006.88
2018-08-08T12:46:11.506Z,1006.91
2018-08-08T12:47:11.378Z,1006.96
2018-08-08T12:49:04.400Z,1006.98
2018-08-08T12:54:26.189Z,1006.96
2018-08-08T12:55:18.191Z,1006.97
2018-08-08T12:57:11.198Z,1007.02
2018-08-08T12:58:11.262Z,1007.02
2018-08-08T13:00:04.287Z,1007.02
2018-08-08T13:01:04.336Z,1007.06
2018-08-08T13:02:57.409Z,1007.17
2018-08-08T13:03:57.422Z,1007.14
2018-08-08T13:05:50.494Z,1007.17
2018-08-08T13:06:50.485Z,1007.14
2018-08-08T13:08:43.497Z,1007.16
2018-08-08T13:09:43.581Z,1007.11
2018-08-08T13:11:36.581Z,1007.18
2018-08-08T13:12:36.636Z,1007.19
2018-08-08T13:14:29.645Z,1007.28
2018-08-08T13:15:29.714Z,1007.29
2018-08-08T13:17:22.836Z,1007.30
2018-08-08T13:18:22.785Z,1007.31
2018-08-08T13:20:16.503Z,1007.26
2018-08-08T13:21:16.364Z,1007.31
2018-08-08T13:23:09.405Z,1007.39
2018-08-08T13:24:09.614Z,1007.34
2018-08-08T13:26:02.481Z,1007.29
2018-08-08T13:27:02.553Z,1007.29
2018-08-08T13:28:55.551Z,1007.29
2018-08-08T13:29:55.615Z,1007.29
2018-08-08T13:31:48.629Z,1007.29
2018-08-08T13:32:48.706Z,1007.37
2018-08-08T13:34:41.786Z,1007.32
2018-08-08T13:35:41.768Z,1007.38
2018-08-08T13:37:34.778Z,1007.36
2018-08-08T13:38:34.854Z,1007.37
2018-08-08T13:40:27.914Z,1007.43
2018-08-08T13:41:27.932Z,1007.36
2018-08-08T13:43:20.942Z,1007.39
2018-08-08T13:44:20.987Z,1007.44
2018-08-08T13:46:13.995Z,1007.48
2018-08-08T13:47:14.059Z,1007.48
2018-08-08T13:49:07.080Z,1007.51
2018-08-08T13:50:07.147Z,1007.52
2018-08-08T13:52:00.241Z,1007.55
2018-08-08T13:53:00.229Z,1007.51
2018-08-08T13:54:53.233Z,1007.54
2018-08-08T13:55:53.298Z,1007.53
2018-08-08T13:57:46.313Z,1007.52
2018-08-08T13:58:46.390Z,1007.45
2018-08-08T14:00:39.382Z,1007.52
2018-08-08T14:01:39.453Z,1007.52
2018-08-08T14:03:32.472Z,1007.47
2018-08-08T14:04:32.540Z,1007.47
2018-08-08T14:06:25.637Z,1007.44
2018-08-08T14:07:25.603Z,1007.47
2018-08-08T14:09:18.620Z,1007.56
2018-08-08T14:10:18.688Z,1007.52
2018-08-08T14:12:11.744Z,1007.53
2018-08-08T14:13:11.751Z,1007.50
2018-08-08T14:15:04.767Z,1007.61
2018-08-08T14:16:04.842Z,1007.56
2018-08-08T14:17:57.847Z,1007.58
2018-08-08T14:18:57.902Z,1007.64
2018-08-08T14:20:51.025Z,1007.61
2018-08-08T14:21:50.973Z,1007.60
2018-08-08T14:23:43.985Z,1007.69
2018-08-08T14:24:44.055Z,1007.73
2018-08-08T14:26:37.101Z,1007.78
2018-08-08T14:27:37.129Z,1007.74
2018-08-08T14:29:30.224Z,1007.77
2018-08-08T14:30:30.206Z,1007.79
2018-08-08T14:32:23.222Z,1007.76
2018-08-08T14:33:23.281Z,1007.73
2018-08-08T14:35:16.279Z,1007.79
2018-08-08T14:36:16.349Z,1007.74
2018-08-08T14:38:09.370Z,1007.77
2018-08-08T14:39:09.420Z,1007.75
2018-08-08T14:41:02.471Z,1007.66
2018-08-08T14:42:02.505Z,1007.74
2018-08-08T14:43:55.515Z,1007.81
2018-08-08T14:44:55.567Z,1007.77
2018-08-08T14:46:48.583Z,1007.77
2018-08-08T14:47:48.692Z,1007.77
2018-08-08T14:49:41.653Z,1007.80
2018-08-08T14:50:41.714Z,1007.86
2018-08-08T14:52:34.727Z,1007.90
2018-08-08T14:53:34.784Z,1007.85
2018-08-08T14:55:27.800Z,1007.86
2018-08-08T14:56:27.862Z,1007.90
2018-08-08T14:58:20.877Z,1007.94
2018-08-08T14:59:20.932Z,1007.89
2018-08-08T15:01:13.937Z,1007.83
2018-08-08T15:02:14.035Z,1007.85
2018-08-08T15:04:07.016Z,1007.85
2018-08-08T15:05:07.078Z,1007.84
2018-08-08T15:07:00.084Z,1007.85
2018-08-08T15:08:00.222Z,1007.90
2018-08-08T15:09:53.154Z,1007.88
2018-08-08T15:10:53.219Z,1007.88
2018-08-08T15:12:46.232Z,1007.88
2018-08-08T15:13:46.301Z,1007.86
2018-08-08T15:15:39.299Z,1007.84
2018-08-08T15:16:39.366Z,1007.87
2018-08-08T15:18:32.380Z,1007.88
2018-08-08T15:19:32.443Z,1007.89
2018-08-08T15:21:25.448Z,1007.95
2018-08-08T15:22:25.511Z,1007.96
2018-08-08T15:24:18.518Z,1007.92
2018-08-08T15:25:18.578Z,1007.95
2018-08-08T15:27:11.595Z,1007.96
2018-08-08T15:28:11.658Z,1007.90
2018-08-08T15:30:04.659Z,1007.88
2018-08-08T15:31:04.769Z,1007.88
2018-08-08T15:32:57.736Z,1007.94
2018-08-08T15:33:57.796Z,1007.89
2018-08-08T15:35:50.804Z,1007.90
2018-08-08T15:36:50.955Z,1007.92
2018-08-08T15:38:43.884Z,1007.95
2018-08-08T15:39:43.949Z,1007.97
2018-08-08T15:41:36.949Z,1007.94
2018-08-08T15:42:37.059Z,1007.98
2018-08-08T15:44:30.020Z,1007.99
2018-08-08T15:45:30.087Z,1007.98
2018-08-08T15:47:23.126Z,1007.93
2018-08-08T15:48:23.184Z,1007.97
2018-08-08T15:50:16.180Z,1007.95
2018-08-08T15:51:16.285Z,1007.96
2018-08-08T15:53:09.256Z,1008.00
2018-08-08T15:54:09.295Z,1008.00
2018-08-08T15:56:02.302Z,1007.96
2018-08-08T15:57:02.372Z,1007.99
2018-08-08T15:58:55.381Z,1007.96
2018-08-08T15:59:55.446Z,1007.99
2018-08-08T16:01:48.476Z,1008.05
2018-08-08T16:02:48.544Z,1008.01
2018-08-08T16:04:41.561Z,1008.06
2018-08-08T16:05:41.615Z,1008.08
2018-08-08T16:07:34.627Z,1008.12
2018-08-08T16:08:34.693Z,1008.13
2018-08-08T16:10:27.691Z,1008.14
2018-08-08T16:11:27.760Z,1008.13
2018-08-08T16:13:20.769Z,1008.16
2018-08-08T16:14:20.831Z,1008.15
2018-08-08T16:16:13.839Z,1008.10
2018-08-08T16:17:13.908Z,1008.09
2018-08-08T16:19:06.915Z,1008.11
2018-08-08T16:20:07.041Z,1008.05
2018-08-08T16:21:59.973Z,1008.09
2018-08-08T16:23:00.049Z,1008.07
2018-08-08T16:24:53.054Z,1008.09
2018-08-08T16:25:53.127Z,1008.12
2018-08-08T16:27:46.124Z,1008.10
2018-08-08T16:28:46.185Z,1008.10
2018-08-08T16:30:39.197Z,1008.10
2018-08-08T16:31:39.265Z,1008.09
2018-08-08T16:33:32.276Z,1008.09
2018-08-08T16:34:32.344Z,1008.16
2018-08-08T16:36:25.352Z,1008.11
2018-08-08T16:37:25.416Z,1008.14
2018-08-08T16:39:18.449Z,1008.17
2018-08-08T16:40:18.486Z,1008.12
2018-08-08T16:42:11.504Z,1008.19
2018-08-08T16:43:11.563Z,1008.23
2018-08-08T16:45:04.586Z,1008.27
2018-08-08T16:46:04.639Z,1008.20
2018-08-08T16:47:57.649Z,1008.22
2018-08-08T16:48:57.716Z,1008.20
2018-08-08T16:50:50.732Z,1008.25
2018-08-08T16:51:50.782Z,1008.23
2018-08-08T16:53:43.792Z,1008.23
2018-08-08T16:54:43.855Z,1008.27
2018-08-08T16:56:36.859Z,1008.25
2018-08-08T16:57:38.889Z,1008.26
2018-08-08T16:59:29.936Z,1008.26
2018-08-08T17:00:29.998Z,1008.31
2018-08-08T17:02:23.011Z,1008.30
2018-08-08T17:03:23.071Z,1008.31
2018-08-08T17:05:16.085Z,1008.28
2018-08-08T17:06:16.139Z,1008.26
2018-08-08T17:08:09.183Z,1008.29
2018-08-08T17:09:09.225Z,1008.29
2018-08-08T17:11:02.242Z,1008.27
2018-08-08T17:12:02.297Z,1008.20
2018-08-08T17:13:55.371Z,1008.20
2018-08-08T17:14:55.368Z,1008.23
2018-08-08T17:16:48.377Z,1008.18
2018-08-08T17:17:48.439Z,1008.19
2018-08-08T17:19:41.447Z,1008.14
2018-08-08T17:20:41.559Z,1008.18
2018-08-08T17:22:34.520Z,1008.21
2018-08-08T17:23:34.590Z,1008.16
2018-08-08T17:25:27.594Z,1008.16
2018-08-08T17:26:27.658Z,1008.21
2018-08-08T17:28:20.669Z,1008.15
2018-08-08T17:29:20.730Z,1008.19
2018-08-08T17:31:13.747Z,1008.18